Main page
METAR-TAF:

METAR-TAF

Airports :

Stord Airport. Sørstokken

Stord, Norway

latitude: 59-48N, longitude: 005-21E, elevation: 49 m

Current weather observation

The report was made 37 minutes ago, at 12:20 UTC
Wind 8 kt from the West/Southwest
Temperature 3°C
Humidity 93%
Pressure 1001 hPa
Visibility 10 km or more
Few clouds at a height of 1200 ft, Cumulonimbus.
Scattered clouds at a height of 2400 ft
Broken clouds at a height of 5000 ft
rain showers

METAR: ENSO 281220Z 24008KT 9999 SHRA FEW012CB SCT024 BKN050 03/02 Q1001

Time: 13:57 (12:57 UTC)

Forecast

The report was made 1 hour and 57 minutes ago, at 11:00 UTC
Forecast valid from 28 at 12 UTC to 28 at 19 UTC
Wind 7 kt from variable directions
Visibility 10 km or more
Few clouds at a height of 2000 ft, Towering cumulus.
Scattered clouds at a height of 4000 ft

TAF: ENSO 281100Z 2812/2819 VRB07KT 9999 FEW020TCU SCT040

Weather observations and forecasts of more than 4000 airports (METAR and TAF reports).

The available stations are represented by yellow and red dots on the map.

Hover mouse over dot to see the name of the station.

Then click to see weather observations and forecasts.

To change the map : click on the green buttons with a black cross to zoom in, on the green button with a dash to zoom out, or on the green arrows for adjacent maps.


METAR-TAF: